createdAt,value
2023-04-27T00:08:20.123Z,100
2023-04-27T00:23:16.755Z,100
2023-04-27T00:38:12.767Z,100
2023-04-27T00:53:09.045Z,100
2023-04-27T01:08:05.133Z,100
2023-04-27T01:23:01.682Z,100
2023-04-27T01:37:58.049Z,100
2023-04-27T01:52:54.206Z,100
2023-04-27T02:07:50.636Z,100
2023-04-27T02:22:46.784Z,100
2023-04-27T02:37:42.633Z,100
2023-04-27T02:52:38.394Z,100
2023-04-27T03:07:34.585Z,100
2023-04-27T03:22:30.193Z,100
2023-04-27T03:37:26.553Z,100
2023-04-27T03:52:22.703Z,100
2023-04-27T04:07:18.604Z,100
2023-04-27T04:22:14.893Z,100
2023-04-27T04:37:11.529Z,100
2023-04-27T04:52:07.894Z,100
2023-04-27T05:07:04.605Z,100
2023-04-27T05:22:00.921Z,100
2023-04-27T05:36:56.997Z,100
2023-04-27T05:51:53.867Z,100
2023-04-27T06:06:50.297Z,100
2023-04-27T06:21:46.631Z,100
2023-04-27T06:36:42.325Z,100
2023-04-27T06:51:38.444Z,100
2023-04-27T07:06:35.024Z,100
2023-04-27T07:21:31.220Z,100
2023-04-27T07:36:28.192Z,100
2023-04-27T07:51:25.067Z,100
2023-04-27T08:06:22.181Z,92.63
2023-04-27T08:21:17.789Z,90.2
2023-04-27T08:36:14.380Z,62.23
2023-04-27T08:51:10.640Z,63.25
2023-04-27T09:06:07.230Z,56.87
2023-04-27T09:21:03.950Z,52.87
2023-04-27T09:36:01.318Z,50.26
2023-04-27T09:50:58.196Z,49.5
2023-04-27T10:05:55.610Z,48.12
2023-04-27T10:20:52.340Z,46.91
2023-04-27T10:35:49.201Z,45.25
2023-04-27T10:50:45.632Z,47.22
2023-04-27T11:05:42.054Z,46.69
2023-04-27T11:20:38.577Z,43.49
2023-04-27T11:35:35.309Z,44.59
2023-04-27T11:50:31.980Z,41.87
2023-04-27T12:05:28.207Z,42.31
2023-04-27T12:20:24.469Z,39.34
2023-04-27T12:35:20.795Z,42.48
2023-04-27T12:50:16.735Z,38.29
2023-04-27T13:05:13.387Z,36.03
2023-04-27T13:20:09.439Z,37.56
2023-04-27T13:35:05.811Z,36.81
2023-04-27T14:04:58.357Z,38.52
2023-04-27T14:19:54.315Z,36.88
2023-04-27T14:34:51.521Z,38.08
2023-04-27T14:49:46.892Z,38.05
2023-04-27T15:04:43.816Z,36.54
2023-04-27T15:19:39.800Z,41.06
2023-04-27T15:34:36.200Z,39.46
2023-04-27T15:49:34.413Z,38.31
2023-04-27T16:04:28.693Z,38.38
2023-04-27T16:19:25.366Z,41.08
2023-04-27T16:34:20.861Z,41.64
2023-04-27T16:49:16.817Z,44.56
2023-04-27T17:04:12.452Z,43.24
2023-04-27T17:19:07.878Z,45.61
2023-04-27T17:34:03.378Z,46.93
2023-04-27T17:48:59.152Z,49.82
2023-04-27T18:03:54.634Z,65.25
2023-04-27T18:18:50.667Z,93.76
2023-04-27T18:33:46.486Z,97.04
2023-04-27T18:48:42.189Z,100
2023-04-27T19:03:38.210Z,100
2023-04-27T19:18:34.447Z,100
2023-04-27T19:33:31.643Z,100
2023-04-27T19:48:26.427Z,100
2023-04-27T20:03:22.842Z,100
2023-04-27T20:18:18.875Z,100
2023-04-27T20:33:14.839Z,100
2023-04-27T20:48:10.715Z,100
2023-04-27T22:02:50.870Z,100
2023-04-27T22:17:46.861Z,100
2023-04-27T22:32:42.752Z,100
2023-04-27T22:47:38.923Z,100
2023-04-27T23:02:35.100Z,100
2023-04-27T23:17:31.434Z,100
2023-04-27T23:32:27.351Z,100
2023-04-27T23:47:23.195Z,100
